Airfield :
LOGIN :

Register | Disclaimer

   EN    FR    IT 

 










Legend :    VFR   Marginal VFR   IFR   Intensive IFR   Very Intensive IFR
Visi :
Ceiling :
>= 8 km
>= 3000ft
5 to 8 km
1000 to 3000 ft
1500m to 5 km
500 to 1000 ft
800 to 1500m
200 to 500 ft
< 800m
< 200 ft
Symbols :   Thunderstorms  Fog  Heavy snow  Heavy precipitations  Wind > 20 kt
SIGMETs :     Misc.  Thunderstorms  Icing  Turbulence  Mountain Waves  Volcanic Ashes






- Airport Elevation : 82 ft
- IATA code : QIE


LFMI - Istres

CURRENT METAR :
  • 300230Z AUTO 36004KT 9999 NSC 04/02 Q1015 NOSIG

EXPIRED METARs :
  • 300200Z AUTO 02004KT 9999 NSC 05/04 Q1015 NOSIG
  • 300130Z AUTO 02004KT 9999 NSC 05/04 Q1015 NOSIG
  • 300100Z AUTO 05003KT 9999 NSC 06/04 Q1015 NOSIG
  • 300030Z AUTO 08002KT 9999 NSC 06/04 Q1015 NOSIG
  • 300000Z AUTO VRB02KT 9999 NSC 06/04 Q1015 NOSIG

TAF TAF LFMI
Valid from the 30 at 03:00 until the 01 at 03:00 UTC


300200Z 3003/0103 36005KT CAVOK TX13/3013Z TN04/3006Z
PROB30
TEMPO 0101/0103 FEW035TCU



MET'MAP, your aeronautical weather chart ! - Copyright ORBIFLY December 2007 - Disclaimer

ORBIFLY MET'MAP TEAM :

Programming & Development : Alexandra Zaïnal
Original concept : Baudouin d'Aumeries
Technical & hardware support : Manuel Goepfert
Assistance : Marc-Olivier Méhu




SOURCES & CREDITS :

   NOAA